Terminal Aerodrome Forecast
Issued by NWS

Home | Current Version | Previous Version | Text Only | Print | Product List | Glossary On
Versions: 1 2 3 4 5 6 7 8 9 10 11 12 13 14 15 16 17 18 19 20 21 22 23 24 25 26 27 28 29
000
FTUS41 KCTP 031147
TAFUNV
TAF
KUNV 031147Z 0312/0412 05006KT 5SM BR OVC006
     FM031600 VRB03KT P6SM BKN015 OVC025
     FM040000 01002KT P6SM OVC050
     FM040300 30002KT 4SM BR OVC025=

USA.gov is the U.S. government's official web portal to all federal, state and local government web resources and services.